createdAt,value
2023-03-29T00:00:48.938Z,101545.58
2023-03-29T00:03:16.040Z,101545.46
2023-03-29T00:05:44.046Z,101549.75
2023-03-29T00:08:13.830Z,101548.63
2023-03-29T00:10:40.524Z,101550.09
2023-03-29T00:13:06.461Z,101547.80
2023-03-29T00:15:33.097Z,101548.58
2023-03-29T00:17:59.332Z,101544.89
2023-03-29T00:20:25.337Z,101546.42
2023-03-29T00:22:51.312Z,101546.58
2023-03-29T00:25:17.332Z,101543.02
2023-03-29T00:27:43.118Z,101539.14
2023-03-29T00:30:09.724Z,101534.25
2023-03-29T00:32:36.637Z,101529.11
2023-03-29T00:35:05.334Z,101525.02
2023-03-29T00:37:31.557Z,101517.35
2023-03-29T00:39:57.700Z,101518.70
2023-03-29T00:42:23.972Z,101517.33
2023-03-29T00:45:11.236Z,101509.35
2023-03-29T00:47:40.838Z,101499.15
2023-03-29T00:50:15.925Z,101498.52
2023-03-29T00:52:45.693Z,101493.63
2023-03-29T00:55:17.090Z,101485.06
2023-03-29T00:57:45.884Z,101475.14
2023-03-29T01:00:20.261Z,101472.59
2023-03-29T01:02:53.386Z,101466.70
2023-03-29T01:05:28.955Z,101463.80
2023-03-29T01:08:00.464Z,101449.70
2023-03-29T01:10:43.301Z,101445.80
2023-03-29T01:13:40.788Z,101433.75
2023-03-29T01:16:10.431Z,101434.55
2023-03-29T01:18:37.756Z,101426.23
2023-03-29T01:21:16.440Z,101425.50
2023-03-29T01:24:07.817Z,101421.94
2023-03-29T01:26:50.574Z,101422.03
2023-03-29T01:29:27.871Z,101422.63
2023-03-29T01:32:06.326Z,101421.05
2023-03-29T01:34:46.698Z,101421.60
2023-03-29T01:37:28.440Z,101421.25
2023-03-29T01:39:54.636Z,101420.54
2023-03-29T01:42:30.405Z,101421.77
2023-03-29T01:45:26.589Z,101434.81
2023-03-29T01:48:10.364Z,101449.52
2023-03-29T01:50:53.669Z,101443.77
2023-03-29T01:53:31.813Z,101440.41
2023-03-29T01:56:11.046Z,101438.02
2023-03-29T01:58:42.773Z,101440.43
2023-03-29T02:01:10.994Z,101430.32
2023-03-29T02:03:41.895Z,101422.88
2023-03-29T02:06:12.139Z,101419.02
2023-03-29T02:08:40.886Z,101426.62
2023-03-29T02:11:08.120Z,101426.45
2023-03-29T02:13:35.316Z,101426.54
2023-03-29T02:16:13.089Z,101425.58
2023-03-29T02:18:41.980Z,101433.04
2023-03-29T02:21:21.440Z,101429.99
2023-03-29T02:23:49.727Z,101435.79
2023-03-29T02:26:17.281Z,101435.16
2023-03-29T02:28:43.502Z,101437.21
2023-03-29T02:31:18.350Z,101437.64
2023-03-29T02:33:53.434Z,101433.59
2023-03-29T02:36:40.863Z,101433.48
2023-03-29T02:39:09.511Z,101435.44
2023-03-29T02:41:37.377Z,101427.55
2023-03-29T02:44:07.538Z,101418.25
2023-03-29T02:46:34.012Z,101421.33
2023-03-29T02:49:00.383Z,101424.02
2023-03-29T02:51:31.886Z,101412.26
2023-03-29T02:54:04.670Z,101411.45
2023-03-29T02:56:42.603Z,101416.84
2023-03-29T02:59:09.138Z,101420.27
2023-03-29T03:01:36.310Z,101422.92
2023-03-29T03:04:03.064Z,101428.02
2023-03-29T03:06:29.420Z,101422.19
2023-03-29T03:08:55.486Z,101417.83
2023-03-29T03:11:22.234Z,101418.27
2023-03-29T03:13:48.196Z,101417.98
2023-03-29T03:16:14.400Z,101417.67
2023-03-29T03:18:41.487Z,101420.75
2023-03-29T03:21:07.432Z,101413.48
2023-03-29T03:23:33.995Z,101418.59
2023-03-29T03:26:00.219Z,101424.08
2023-03-29T03:28:27.955Z,101422.27
2023-03-29T03:30:54.190Z,101414.67
2023-03-29T03:33:42.936Z,101410.55
2023-03-29T03:36:28.782Z,101420.66
2023-03-29T03:38:54.853Z,101428.83
2023-03-29T03:41:20.758Z,101434.14
2023-03-29T03:43:48.411Z,101429.48
2023-03-29T03:46:16.492Z,101437.20
2023-03-29T03:48:44.071Z,101449.05
2023-03-29T03:51:17.719Z,101454.85
2023-03-29T03:53:43.955Z,101448.85
2023-03-29T03:56:13.322Z,101452.45
2023-03-29T03:59:08.699Z,101440.11
2023-03-29T04:01:56.149Z,101430.64
2023-03-29T04:04:22.831Z,101433.13
2023-03-29T04:07:02.067Z,101434.86
2023-03-29T04:09:56.680Z,101440.13
2023-03-29T04:12:32.044Z,101439.59
2023-03-29T04:14:58.010Z,101443.85
2023-03-29T04:17:26.585Z,101448.84
2023-03-29T04:19:56.887Z,101447.75
2023-03-29T04:22:27.352Z,101449.64
2023-03-29T04:24:53.428Z,101446.60
2023-03-29T04:27:38.273Z,101451.59
2023-03-29T04:30:10.580Z,101448.07
2023-03-29T04:32:56.292Z,101449.64
2023-03-29T04:35:22.528Z,101452.41
2023-03-29T04:37:50.524Z,101456.05
2023-03-29T04:40:18.872Z,101459.00
2023-03-29T04:42:52.084Z,101457.39
2023-03-29T04:45:18.923Z,101463.91
2023-03-29T04:48:03.036Z,101472.58
2023-03-29T04:50:29.133Z,101473.04
2023-03-29T04:52:56.504Z,101467.50
2023-03-29T04:55:22.587Z,101465.98
2023-03-29T04:57:58.138Z,101466.19
2023-03-29T05:00:30.960Z,101469.54
2023-03-29T05:03:15.399Z,101469.60
2023-03-29T05:06:13.726Z,101466.39
2023-03-29T05:08:40.471Z,101467.73
2023-03-29T05:11:19.175Z,101470.96
2023-03-29T05:13:45.431Z,101461.85
2023-03-29T05:16:11.643Z,101465.34
2023-03-29T05:18:37.864Z,101470.28
2023-03-29T05:21:04.938Z,101469.77
2023-03-29T05:23:31.979Z,101469.82
2023-03-29T05:26:09.285Z,101467.70
2023-03-29T05:28:35.993Z,101466.17
2023-03-29T05:31:05.092Z,101467.96
2023-03-29T05:33:34.024Z,101465.77
2023-03-29T05:36:10.297Z,101464.98
2023-03-29T05:38:41.461Z,101457.13
2023-03-29T05:41:08.089Z,101462.05
2023-03-29T05:44:00.092Z,101466.34
2023-03-29T05:46:27.459Z,101466.05
2023-03-29T05:48:56.132Z,101466.25
2023-03-29T05:51:27.693Z,101463.90
2023-03-29T05:53:54.259Z,101466.89
2023-03-29T05:56:20.182Z,101465.81
2023-03-29T05:58:46.068Z,101463.98
2023-03-29T06:01:13.949Z,101472.42
2023-03-29T06:03:52.991Z,101472.70
2023-03-29T06:06:20.753Z,101478.16
2023-03-29T06:08:47.176Z,101476.48
2023-03-29T06:11:29.885Z,101474.38
2023-03-29T06:14:14.970Z,101470.90
2023-03-29T06:16:46.414Z,101464.51
2023-03-29T06:19:12.949Z,101469.98
2023-03-29T06:21:40.581Z,101465.77
2023-03-29T06:24:06.819Z,101472.88
2023-03-29T06:26:37.356Z,101470.42
2023-03-29T06:29:03.875Z,101470.91
2023-03-29T06:31:31.564Z,101465.38
2023-03-29T06:33:57.996Z,101460.10
2023-03-29T06:36:34.344Z,101461.66
2023-03-29T06:39:03.312Z,101466.21
2023-03-29T06:41:49.496Z,101481.18
2023-03-29T06:44:41.490Z,101488.30
2023-03-29T06:47:13.552Z,101488.46
2023-03-29T06:49:40.318Z,101494.36
2023-03-29T06:52:22.466Z,101492.70
2023-03-29T06:54:48.885Z,101487.96
2023-03-29T06:57:14.892Z,101490.87
2023-03-29T06:59:41.747Z,101496.57
2023-03-29T07:02:22.089Z,101500.57
2023-03-29T07:04:55.608Z,101505.09
2023-03-29T07:07:32.589Z,101512.44
2023-03-29T07:10:08.821Z,101515.81
2023-03-29T07:13:02.348Z,101515.27
2023-03-29T07:15:28.754Z,101518.83
2023-03-29T07:18:30.024Z,101522.52
2023-03-29T07:20:56.765Z,101529.38
2023-03-29T07:23:23.147Z,101533.13
2023-03-29T07:25:50.548Z,101537.63
2023-03-29T07:28:17.957Z,101538.39
2023-03-29T07:30:43.923Z,101543.63
2023-03-29T07:33:12.669Z,101552.64
2023-03-29T07:35:48.067Z,101556.49
2023-03-29T07:38:14.931Z,101554.55
2023-03-29T07:40:45.656Z,101553.55
2023-03-29T07:43:30.116Z,101551.37
2023-03-29T07:46:00.638Z,101554.09
2023-03-29T07:48:27.011Z,101551.08
2023-03-29T07:50:58.001Z,101547.43
2023-03-29T07:53:29.144Z,101540.36
2023-03-29T07:55:56.523Z,101545.73
2023-03-29T07:58:41.562Z,101544.77
2023-03-29T08:01:07.873Z,101543.33
2023-03-29T08:04:09.497Z,101541.27
2023-03-29T08:06:58.783Z,101539.77
2023-03-29T08:09:32.716Z,101538.98
2023-03-29T08:11:58.601Z,101533.63
2023-03-29T08:14:30.615Z,101532.23
2023-03-29T08:17:02.275Z,101527.59
2023-03-29T08:19:30.974Z,101524.60
2023-03-29T08:22:03.286Z,101520.06
2023-03-29T08:24:39.382Z,101515.92
2023-03-29T08:27:06.274Z,101519.56
2023-03-29T08:29:32.944Z,101520.31
2023-03-29T08:31:58.912Z,101512.87
2023-03-29T08:34:25.343Z,101507.77
2023-03-29T08:37:15.167Z,101511.22
2023-03-29T08:39:44.751Z,101518.03
2023-03-29T08:42:42.634Z,101518.52
2023-03-29T08:45:25.327Z,101519.20
2023-03-29T08:47:58.923Z,101518.84
2023-03-29T08:50:36.146Z,101514.91
2023-03-29T08:53:07.248Z,101514.17
2023-03-29T08:55:55.463Z,101506.24
2023-03-29T08:58:37.228Z,101508.66
2023-03-29T09:01:08.059Z,101503.94
2023-03-29T09:03:52.417Z,101507.25
2023-03-29T09:06:28.038Z,101509.17
2023-03-29T09:08:58.478Z,101515.42
2023-03-29T09:11:27.833Z,101516.93
2023-03-29T09:14:31.958Z,101505.06
2023-03-29T09:17:01.114Z,101499.56
2023-03-29T09:19:36.652Z,101494.17
2023-03-29T09:22:23.747Z,101493.84
2023-03-29T09:25:02.969Z,101493.74
2023-03-29T09:27:55.763Z,101490.17
2023-03-29T09:30:34.020Z,101493.23
2023-03-29T09:33:13.175Z,101492.20
2023-03-29T09:36:07.269Z,101487.72
2023-03-29T09:38:39.501Z,101489.80
2023-03-29T09:41:19.887Z,101488.98
2023-03-29T09:43:48.089Z,101482.09
2023-03-29T09:46:24.850Z,101480.00
2023-03-29T09:48:54.007Z,101472.65
2023-03-29T09:51:25.005Z,101472.64
2023-03-29T09:53:51.192Z,101469.84
2023-03-29T09:56:31.365Z,101468.24
2023-03-29T09:59:10.997Z,101476.67
2023-03-29T10:01:41.094Z,101474.34
2023-03-29T10:04:09.538Z,101468.55
2023-03-29T10:06:44.191Z,101463.72
2023-03-29T10:09:16.623Z,101455.02
2023-03-29T10:11:47.378Z,101453.44
2023-03-29T10:14:20.697Z,101455.74
2023-03-29T10:16:55.306Z,101456.15
2023-03-29T10:19:26.596Z,101450.14
2023-03-29T10:21:54.584Z,101443.67
2023-03-29T10:24:22.899Z,101438.07
2023-03-29T10:26:55.075Z,101440.59
2023-03-29T10:29:25.271Z,101433.54
2023-03-29T10:31:52.221Z,101432.39
2023-03-29T10:34:19.328Z,101432.45
2023-03-29T10:36:56.892Z,101428.77
2023-03-29T10:39:31.803Z,101419.12
2023-03-29T10:41:59.394Z,101414.73
2023-03-29T10:44:35.984Z,101415.19
2023-03-29T10:47:19.780Z,101413.30
2023-03-29T10:49:58.240Z,101402.23
2023-03-29T10:52:25.115Z,101398.73
2023-03-29T10:54:54.203Z,101402.71
2023-03-29T10:57:41.515Z,101403.72
2023-03-29T11:00:18.280Z,101403.79
2023-03-29T11:02:53.523Z,101394.77
2023-03-29T11:05:42.693Z,101391.15
2023-03-29T11:08:18.083Z,101378.67
2023-03-29T11:11:08.214Z,101380.14
2023-03-29T11:13:37.477Z,101377.23
2023-03-29T11:16:08.932Z,101374.31
2023-03-29T11:18:55.759Z,101364.78
2023-03-29T11:21:54.088Z,101374.67
2023-03-29T11:24:26.870Z,101377.17
2023-03-29T11:27:04.726Z,101372.92
2023-03-29T11:29:34.314Z,101367.10
2023-03-29T11:32:18.856Z,101364.16
2023-03-29T11:35:11.656Z,101358.49
2023-03-29T11:37:55.024Z,101355.08
2023-03-29T11:40:21.259Z,101356.58
2023-03-29T11:42:52.969Z,101360.36
2023-03-29T11:45:31.800Z,101360.04
2023-03-29T11:48:02.033Z,101358.65
2023-03-29T11:50:57.076Z,101356.60
2023-03-29T11:53:38.157Z,101365.29
2023-03-29T11:56:15.095Z,101367.89
2023-03-29T11:58:47.640Z,101358.45
2023-03-29T12:01:23.020Z,101350.65
2023-03-29T12:03:56.748Z,101344.22
2023-03-29T12:06:29.143Z,101335.79
2023-03-29T12:09:06.217Z,101338.96
2023-03-29T12:11:45.184Z,101346.75
2023-03-29T12:14:27.812Z,101337.49
2023-03-29T12:17:00.874Z,101333.06
2023-03-29T12:19:30.034Z,101325.38
2023-03-29T12:21:57.694Z,101324.53
2023-03-29T12:24:29.119Z,101324.46
2023-03-29T12:27:23.753Z,101315.58
2023-03-29T12:30:18.218Z,101310.13
2023-03-29T12:33:05.329Z,101310.31
2023-03-29T12:36:03.876Z,101308.95
2023-03-29T12:38:51.803Z,101301.98
2023-03-29T12:41:37.833Z,101305.05
2023-03-29T12:44:08.421Z,101312.96
2023-03-29T12:46:46.514Z,101304.46
2023-03-29T12:49:30.741Z,101309.83
2023-03-29T12:51:58.940Z,101305.70
2023-03-29T12:54:33.473Z,101302.12
2023-03-29T12:57:02.331Z,101293.88
2023-03-29T12:59:46.981Z,101288.71
2023-03-29T13:02:17.348Z,101289.14
2023-03-29T13:04:43.263Z,101290.23
2023-03-29T13:07:23.477Z,101291.90
2023-03-29T13:09:52.912Z,101286.65
2023-03-29T13:12:19.637Z,101288.57
2023-03-29T13:15:01.758Z,101283.80
2023-03-29T13:17:48.021Z,101275.52
2023-03-29T13:20:38.852Z,101276.33
2023-03-29T13:23:23.426Z,101280.85
2023-03-29T13:25:49.716Z,101271.39
2023-03-29T13:28:36.992Z,101264.58
2023-03-29T13:31:24.547Z,101265.97
2023-03-29T13:34:31.191Z,101264.92
2023-03-29T13:37:31.584Z,101264.34
2023-03-29T13:39:57.552Z,101261.99
2023-03-29T13:42:36.763Z,101263.25
2023-03-29T13:45:24.553Z,101259.48
2023-03-29T13:48:21.841Z,101254.88
2023-03-29T13:51:07.344Z,101246.65
2023-03-29T13:53:43.548Z,101241.73
2023-03-29T13:56:19.423Z,101239.34
2023-03-29T13:58:50.616Z,101246.74
2023-03-29T14:01:22.939Z,101241.96
2023-03-29T14:03:53.138Z,101238.77
2023-03-29T14:06:25.904Z,101228.80
2023-03-29T14:08:53.533Z,101232.05
2023-03-29T14:11:23.879Z,101234.55
2023-03-29T14:13:54.831Z,101237.55
2023-03-29T14:16:21.606Z,101227.53
2023-03-29T14:18:50.648Z,101229.73
2023-03-29T14:21:17.860Z,101224.33
2023-03-29T14:23:46.095Z,101223.33
2023-03-29T14:26:21.376Z,101227.55
2023-03-29T14:28:52.964Z,101229.64
2023-03-29T14:31:21.674Z,101231.03
2023-03-29T14:33:56.458Z,101222.02
2023-03-29T14:36:26.611Z,101225.95
2023-03-29T14:38:58.728Z,101226.80
2023-03-29T14:41:33.861Z,101229.86
2023-03-29T14:44:00.570Z,101234.36
2023-03-29T14:46:28.494Z,101232.48
2023-03-29T14:48:56.168Z,101235.13
2023-03-29T14:51:28.034Z,101233.96
2023-03-29T14:53:55.488Z,101232.95
2023-03-29T14:56:24.908Z,101230.79
2023-03-29T14:58:54.124Z,101230.86
2023-03-29T15:01:22.996Z,101233.69
2023-03-29T15:03:53.487Z,101239.05
2023-03-29T15:06:22.233Z,101242.71
2023-03-29T15:09:03.769Z,101238.73
2023-03-29T15:11:32.236Z,101231.91
2023-03-29T15:14:05.594Z,101225.17
2023-03-29T15:16:32.934Z,101221.27
2023-03-29T15:19:01.229Z,101220.15
2023-03-29T15:21:34.872Z,101225.22
2023-03-29T15:24:03.837Z,101224.30
2023-03-29T15:26:35.473Z,101223.31
2023-03-29T15:29:23.008Z,101220.79
2023-03-29T15:31:58.507Z,101218.35
2023-03-29T15:34:28.724Z,101215.27
2023-03-29T15:36:57.301Z,101217.04
2023-03-29T15:39:24.366Z,101225.69
2023-03-29T15:41:52.075Z,101228.60
2023-03-29T15:44:32.911Z,101221.48
2023-03-29T15:47:00.007Z,101213.89
2023-03-29T15:49:28.002Z,101216.42
2023-03-29T15:51:54.095Z,101214.77
2023-03-29T15:54:21.958Z,101216.02
2023-03-29T15:56:52.882Z,101218.12
2023-03-29T15:59:19.017Z,101210.14
2023-03-29T16:01:45.973Z,101214.09
2023-03-29T16:04:14.758Z,101202.14
2023-03-29T16:06:42.345Z,101197.86
2023-03-29T16:09:11.183Z,101193.35
2023-03-29T16:11:38.664Z,101188.21
2023-03-29T16:14:26.477Z,101188.06
2023-03-29T16:16:57.693Z,101186.73
2023-03-29T16:19:25.334Z,101185.67
2023-03-29T16:21:52.456Z,101181.86
2023-03-29T16:24:21.421Z,101187.20
2023-03-29T16:26:48.015Z,101191.58
2023-03-29T16:29:16.620Z,101181.73
2023-03-29T16:31:44.001Z,101183.92
2023-03-29T16:34:13.048Z,101184.47
2023-03-29T16:36:40.297Z,101182.56
2023-03-29T16:39:06.683Z,101185.34
2023-03-29T16:41:32.765Z,101190.70
2023-03-29T16:43:59.335Z,101190.09
2023-03-29T16:46:25.818Z,101194.23
2023-03-29T16:48:53.031Z,101195.77
2023-03-29T16:51:20.150Z,101199.23
2023-03-29T16:53:50.870Z,101199.08
2023-03-29T16:56:20.021Z,101199.33
2023-03-29T16:58:46.549Z,101202.61
2023-03-29T17:01:15.332Z,101202.94
2023-03-29T17:03:42.418Z,101206.90
2023-03-29T17:06:10.294Z,101209.19
2023-03-29T17:08:37.406Z,101211.37
2023-03-29T17:11:04.064Z,101208.31
2023-03-29T17:13:30.409Z,101210.74
2023-03-29T17:15:57.178Z,101211.41
2023-03-29T17:18:24.582Z,101215.13
2023-03-29T17:20:52.282Z,101210.55
2023-03-29T17:23:18.256Z,101217.31
2023-03-29T17:25:44.237Z,101217.28
2023-03-29T17:28:10.859Z,101217.48
2023-03-29T17:30:37.452Z,101216.45
2023-03-29T17:33:03.502Z,101218.02
2023-03-29T17:35:29.658Z,101222.75
2023-03-29T17:37:55.889Z,101227.75
2023-03-29T17:40:21.880Z,101230.73
2023-03-29T17:42:48.247Z,101232.70
2023-03-29T17:45:15.606Z,101234.67
2023-03-29T17:47:41.953Z,101237.29
2023-03-29T17:50:09.583Z,101239.27
2023-03-29T17:52:35.797Z,101240.96
2023-03-29T17:55:01.940Z,101241.19
2023-03-29T17:57:28.210Z,101249.52
2023-03-29T17:59:54.179Z,101256.45
2023-03-29T18:02:22.425Z,101262.27
2023-03-29T18:04:49.992Z,101268.25
2023-03-29T18:07:16.697Z,101272.96
2023-03-29T18:09:42.667Z,101277.54
2023-03-29T18:12:09.049Z,101285.99
2023-03-29T18:14:35.281Z,101290.59
2023-03-29T18:17:01.885Z,101289.98
2023-03-29T18:19:28.031Z,101291.13
2023-03-29T18:21:54.069Z,101295.06
2023-03-29T18:24:20.035Z,101302.56
2023-03-29T18:26:46.090Z,101304.23
2023-03-29T18:29:12.513Z,101305.87
2023-03-29T18:31:38.596Z,101308.40
2023-03-29T18:34:04.624Z,101312.26
2023-03-29T18:36:31.479Z,101320.50
2023-03-29T18:39:04.642Z,101324.08
2023-03-29T18:41:32.289Z,101325.65
2023-03-29T18:43:59.563Z,101327.23
2023-03-29T18:46:29.828Z,101333.74
2023-03-29T18:48:57.428Z,101332.98
2023-03-29T18:51:25.113Z,101332.91
2023-03-29T18:53:52.210Z,101339.26
2023-03-29T18:56:18.226Z,101339.52
2023-03-29T18:58:44.105Z,101344.02
2023-03-29T19:01:10.636Z,101349.36
2023-03-29T19:03:36.822Z,101354.12
2023-03-29T19:06:04.028Z,101357.70
2023-03-29T19:08:32.251Z,101360.66
2023-03-29T19:11:04.024Z,101360.00
2023-03-29T19:13:30.299Z,101356.81
2023-03-29T19:15:56.385Z,101356.23
2023-03-29T19:18:25.725Z,101355.31
2023-03-29T19:20:53.551Z,101357.48
2023-03-29T19:23:22.475Z,101358.73
2023-03-29T19:25:59.624Z,101354.07
2023-03-29T19:28:27.686Z,101357.77
2023-03-29T19:30:58.120Z,101355.55
2023-03-29T19:33:24.620Z,101360.83
2023-03-29T19:35:52.493Z,101365.92
2023-03-29T19:38:20.425Z,101365.25
2023-03-29T19:40:48.766Z,101366.72
2023-03-29T19:43:16.193Z,101364.24
2023-03-29T19:45:49.688Z,101367.83
2023-03-29T19:48:22.505Z,101366.34
2023-03-29T19:50:50.683Z,101379.09
2023-03-29T19:53:23.789Z,101383.79
2023-03-29T19:55:51.876Z,101385.37
2023-03-29T19:58:19.468Z,101382.46
2023-03-29T20:00:51.474Z,101383.67
2023-03-29T20:03:22.485Z,101382.91
2023-03-29T20:05:52.699Z,101387.64
2023-03-29T20:08:20.782Z,101393.57
2023-03-29T20:10:49.161Z,101395.06
2023-03-29T20:13:31.469Z,101396.63
2023-03-29T20:16:15.448Z,101397.21
2023-03-29T20:18:47.536Z,101398.37
2023-03-29T20:21:18.275Z,101402.41
2023-03-29T20:23:47.777Z,101398.14
2023-03-29T20:26:14.644Z,101401.34
2023-03-29T20:28:42.058Z,101408.30
2023-03-29T20:31:13.611Z,101410.40
2023-03-29T20:33:40.877Z,101410.97
2023-03-29T20:36:08.139Z,101411.41
2023-03-29T20:38:35.852Z,101410.37
2023-03-29T20:41:05.736Z,101410.30
2023-03-29T20:43:36.769Z,101415.69
2023-03-29T20:46:17.506Z,101422.91
2023-03-29T20:48:53.411Z,101422.40
2023-03-29T20:51:27.407Z,101419.51
2023-03-29T20:54:01.425Z,101430.84
2023-03-29T20:56:34.673Z,101425.75
2023-03-29T20:59:01.248Z,101425.49
2023-03-29T21:01:28.883Z,101428.17
2023-03-29T21:03:55.214Z,101428.88
2023-03-29T21:06:23.611Z,101435.73
2023-03-29T21:08:51.896Z,101437.23
2023-03-29T21:11:20.249Z,101437.09
2023-03-29T21:13:46.772Z,101434.96
2023-03-29T21:16:13.075Z,101437.66
2023-03-29T21:18:39.824Z,101434.39
2023-03-29T21:21:07.624Z,101433.66
2023-03-29T21:23:37.527Z,101435.81
2023-03-29T21:26:06.630Z,101434.77
2023-03-29T21:28:34.230Z,101437.27
2023-03-29T21:31:04.966Z,101431.50
2023-03-29T21:33:31.653Z,101431.05
2023-03-29T21:35:57.841Z,101425.92
2023-03-29T21:38:23.900Z,101418.38
2023-03-29T21:40:49.973Z,101415.60
2023-03-29T21:43:15.995Z,101415.00
2023-03-29T21:45:41.963Z,101414.55
2023-03-29T21:48:08.005Z,101412.98
2023-03-29T21:50:34.144Z,101418.31
2023-03-29T21:53:01.340Z,101422.23
2023-03-29T21:55:27.922Z,101423.67
2023-03-29T21:57:53.906Z,101425.27
2023-03-29T22:00:21.641Z,101427.31
2023-03-29T22:02:47.833Z,101423.27
2023-03-29T22:05:14.413Z,101418.10
2023-03-29T22:07:40.371Z,101412.59
2023-03-29T22:10:07.210Z,101413.94
2023-03-29T22:12:37.328Z,101405.02
2023-03-29T22:15:08.249Z,101400.98
2023-03-29T22:17:35.318Z,101404.61
2023-03-29T22:20:02.075Z,101406.95
2023-03-29T22:22:28.101Z,101415.42
2023-03-29T22:24:54.472Z,101414.06
2023-03-29T22:27:21.459Z,101409.06
2023-03-29T22:29:47.849Z,101405.08
2023-03-29T22:32:13.895Z,101407.81
2023-03-29T22:34:39.904Z,101411.10
2023-03-29T22:37:05.739Z,101410.75
2023-03-29T22:39:34.567Z,101406.94
2023-03-29T22:42:00.655Z,101408.52
2023-03-29T22:44:26.652Z,101407.90
2023-03-29T22:46:52.564Z,101407.08
2023-03-29T22:49:18.536Z,101406.92
2023-03-29T22:51:44.713Z,101407.46
2023-03-29T22:54:11.405Z,101398.92
2023-03-29T22:56:37.283Z,101399.67
2023-03-29T22:59:03.492Z,101400.98
2023-03-29T23:01:29.693Z,101402.29
2023-03-29T23:03:55.719Z,101407.30
2023-03-29T23:06:21.603Z,101415.63
2023-03-29T23:08:47.543Z,101422.16
2023-03-29T23:11:13.434Z,101417.11
2023-03-29T23:13:39.443Z,101409.98
2023-03-29T23:16:05.629Z,101404.84
2023-03-29T23:18:34.055Z,101403.55
2023-03-29T23:21:00.795Z,101411.40
2023-03-29T23:23:27.836Z,101413.98
2023-03-29T23:25:55.051Z,101417.66
2023-03-29T23:28:26.602Z,101420.58
2023-03-29T23:30:54.698Z,101420.70
2023-03-29T23:33:21.271Z,101419.52
2023-03-29T23:35:47.745Z,101423.99
2023-03-29T23:38:13.687Z,101426.63
2023-03-29T23:40:39.608Z,101432.67
2023-03-29T23:43:05.536Z,101438.42
2023-03-29T23:45:31.817Z,101437.03
2023-03-29T23:47:57.903Z,101432.61
2023-03-29T23:50:23.923Z,101432.27
2023-03-29T23:52:50.901Z,101435.07
2023-03-29T23:55:17.415Z,101430.81
2023-03-29T23:57:43.303Z,101429.49
